Time;durP1;ratioP1;P1;durP2;ratioP2;P2;SDS_P1;SDS_P2;PMS_P1;PMS_P2;Temp;Humidity;BMP_temperature;BMP_pressure;BME280_temperature;BME280_humidity;BME280_pressure;Samples;Min_cycle;Max_cycle;Signal;HPM_P1;HPM_P2
2022/07/29 00:01:21;;;;;;;3.50;3.20;;;;;;;22.60;100.00;99629.28;5002634;28;20045;-80
2022/07/29 00:03:47;;;;;;;2.83;2.60;;;;;;;22.33;100.00;99639.38;5000119;28;20092;-80
2022/07/29 00:06:13;;;;;;;2.80;2.60;;;;;;;22.30;100.00;99647.91;5003486;28;20030;-81
2022/07/29 00:08:39;;;;;;;3.00;2.80;;;;;;;22.11;100.00;99651.53;5004749;28;20038;-82
2022/07/29 00:11:05;;;;;;;2.88;2.67;;;;;;;21.96;100.00;99642.94;5003707;28;20479;-81
2022/07/29 00:13:31;;;;;;;3.22;2.92;;;;;;;21.91;100.00;99645.41;5003444;28;20029;-83
2022/07/29 00:15:56;;;;;;;3.50;3.20;;;;;;;21.92;100.00;99645.16;5004713;28;20022;-81
2022/07/29 00:18:22;;;;;;;2.60;2.40;;;;;;;21.85;100.00;99644.41;4999563;28;20073;-84
2022/07/29 00:20:48;;;;;;;2.65;2.47;;;;;;;21.89;100.00;99642.09;5007575;28;20029;-83
2022/07/29 00:23:13;;;;;;;3.03;2.70;;;;;;;21.97;100.00;99655.31;5005980;28;20093;-82
2022/07/29 00:25:39;;;;;;;3.38;2.78;;;;;;;22.04;100.00;99646.19;5007332;28;20046;-83
2022/07/29 00:28:06;;;;;;;8.70;2.85;;;;;;;22.10;100.00;99638.28;5003725;28;20097;-82
2022/07/29 00:30:31;;;;;;;3.40;2.53;;;;;;;22.17;100.00;99637.22;5004510;28;20065;-81
2022/07/29 00:32:58;;;;;;;2.88;2.58;;;;;;;22.21;100.00;99630.38;5001607;28;20042;-81
2022/07/29 00:38:08;;;;;;;2.95;2.75;;;;;;;22.15;100.00;99625.84;5000793;28;20390;-81
2022/07/29 00:40:33;;;;;;;3.90;2.65;;;;;;;22.19;100.00;99621.72;5006270;28;20030;-82
2022/07/29 00:42:59;;;;;;;3.88;2.63;;;;;;;22.28;100.00;99624.94;5002475;28;20030;-81
2022/07/29 00:45:25;;;;;;;3.15;2.38;;;;;;;22.31;100.00;99617.28;5003791;28;20053;-80
2022/07/29 00:47:51;;;;;;;3.63;2.78;;;;;;;22.37;100.00;99603.00;5002263;28;20038;-80
2022/07/29 00:50:17;;;;;;;2.78;2.58;;;;;;;22.39;100.00;99600.06;5002051;28;20034;-79
2022/07/29 00:52:43;;;;;;;2.33;2.22;;;;;;;22.39;100.00;99600.88;5000128;28;20042;-80
2022/07/29 00:55:12;;;;;;;2.80;2.60;;;;;;;22.40;100.00;99599.84;5000732;28;20025;-79
2022/07/29 00:57:39;;;;;;;3.05;2.83;;;;;;;22.41;100.00;99604.19;4996579;28;20507;-79
2022/07/29 01:00:08;;;;;;;2.70;2.50;;;;;;;22.44;100.00;99614.50;4995264;28;20042;-78
2022/07/29 01:02:33;;;;;;;3.08;2.72;;;;;;;22.42;100.00;99616.59;5000176;28;20045;-79
2022/07/29 01:05:00;;;;;;;3.00;2.80;;;;;;;22.20;100.00;99619.84;5002091;28;20022;-78
2022/07/29 01:07:26;;;;;;;3.78;2.90;;;;;;;22.13;100.00;99617.19;5002165;28;20038;-81
2022/07/29 01:09:53;;;;;;;2.83;2.63;;;;;;;22.03;100.00;99608.78;4999846;28;20069;-81
2022/07/29 01:12:24;;;;;;;2.88;2.65;;;;;;;21.97;100.00;99612.34;5002086;28;20455;-81
2022/07/29 01:14:51;;;;;;;3.60;3.40;;;;;;;21.89;100.00;99604.50;5002339;28;20410;-81
2022/07/29 01:17:23;;;;;;;3.70;3.40;;;;;;;21.67;100.00;99600.47;5002930;28;20042;-83
2022/07/29 01:20:36;;;;;;;5.85;3.60;;;;;;;21.33;100.00;99610.47;5001324;28;20054;-84
2022/07/29 01:23:53;;;;;;;4.32;3.53;;;;;;;21.24;100.00;99598.34;4978852;28;20046;-82
2022/07/29 01:26:48;;;;;;;3.90;2.90;;;;;;;21.34;100.00;99598.72;4982801;28;20069;-83
2022/07/29 01:29:38;;;;;;;3.22;2.85;;;;;;;21.34;100.00;99606.75;4996894;28;20042;-82
2022/07/29 01:32:08;;;;;;;3.00;2.80;;;;;;;21.20;100.00;99600.63;4996677;28;20117;-81
2022/07/29 01:34:46;;;;;;;3.35;3.08;;;;;;;21.17;100.00;99590.28;4999166;28;20042;-82
2022/07/29 01:37:20;;;;;;;3.60;2.80;;;;;;;21.23;100.00;99588.63;4997991;28;20039;-81
2022/07/29 01:39:49;;;;;;;2.92;2.72;;;;;;;21.36;100.00;99593.97;5001235;28;20030;-79
2022/07/29 01:42:22;;;;;;;3.08;2.88;;;;;;;21.48;100.00;99588.75;4999663;28;20467;-81
2022/07/29 01:44:52;;;;;;;3.53;3.22;;;;;;;21.58;100.00;99592.63;4998298;28;20066;-80
2022/07/29 01:47:23;;;;;;;2.67;2.47;;;;;;;21.68;100.00;99586.00;5001595;28;20061;-80
2022/07/29 01:49:52;;;;;;;2.90;2.67;;;;;;;21.76;100.00;99588.44;5000582;28;20494;-80
2022/07/29 01:52:54;;;;;;;3.33;3.13;;;;;;;21.73;100.00;99599.63;5006407;28;20030;-79
2022/07/29 01:55:24;;;;;;;3.63;3.20;;;;;;;21.53;100.00;99595.13;4982314;28;20063;-81
2022/07/29 01:57:50;;;;;;;3.10;2.90;;;;;;;21.56;100.00;99600.06;5010759;28;20492;-81
2022/07/29 02:00:17;;;;;;;3.40;3.05;;;;;;;21.57;100.00;99599.03;5009207;28;20062;-81
2022/07/29 02:02:46;;;;;;;3.53;3.22;;;;;;;21.38;100.00;99605.31;5011059;28;20387;-81
2022/07/29 02:05:15;;;;;;;3.58;3.28;;;;;;;21.25;100.00;99608.03;5008979;28;20037;-81
2022/07/29 02:07:42;;;;;;;4.72;3.38;;;;;;;21.08;100.00;99601.44;5010405;28;20374;-82
2022/07/29 02:10:10;;;;;;;4.10;3.47;;;;;;;21.09;100.00;99609.25;5012826;28;20037;-81
2022/07/29 02:12:37;;;;;;;4.22;3.15;;;;;;;21.19;100.00;99603.50;5009452;28;20029;-81
2022/07/29 02:15:05;;;;;;;3.63;3.15;;;;;;;21.17;100.00;99610.94;5002502;28;20120;-82
2022/07/29 02:17:39;;;;;;;3.83;3.40;;;;;;;21.12;100.00;99602.66;5013182;28;20037;-82
2022/07/29 02:20:05;;;;;;;3.70;3.00;;;;;;;21.12;100.00;99605.34;5005335;28;20039;-80
2022/07/29 02:22:35;;;;;;;3.45;2.83;;;;;;;21.21;100.00;99604.09;5007171;28;20379;-80
2022/07/29 02:25:01;;;;;;;4.53;3.28;;;;;;;21.32;100.00;99611.53;5010369;28;20177;-80
2022/07/29 02:27:28;;;;;;;4.40;3.10;;;;;;;21.33;100.00;99615.00;5008702;28;20048;-80
2022/07/29 02:29:58;;;;;;;4.20;3.33;;;;;;;21.15;100.00;99605.78;5010159;28;20423;-80
2022/07/29 02:32:25;;;;;;;4.10;3.80;;;;;;;21.03;100.00;99598.56;5009473;28;20446;-79
2022/07/29 02:34:52;;;;;;;3.88;3.58;;;;;;;21.00;100.00;99598.97;5006762;28;20438;-80
2022/07/29 02:37:18;;;;;;;4.20;3.35;;;;;;;20.97;100.00;99594.03;5004813;28;20140;-79
2022/07/29 02:39:45;;;;;;;3.95;3.42;;;;;;;20.94;100.00;99586.38;5006933;28;20042;-79
2022/07/29 02:42:15;;;;;;;4.50;3.47;;;;;;;20.96;100.00;99587.00;5009192;28;20114;-79
2022/07/29 02:44:41;;;;;;;3.50;3.30;;;;;;;21.00;100.00;99582.88;5011733;28;20034;-80
2022/07/29 02:47:30;;;;;;;4.38;3.38;;;;;;;21.09;100.00;99589.66;5014731;28;20084;-80
2022/07/29 02:50:16;;;;;;;4.25;3.65;;;;;;;21.11;100.00;99591.09;5011198;28;20045;-79
2022/07/29 02:52:45;;;;;;;3.88;3.58;;;;;;;21.20;100.00;99583.69;5007819;28;20027;-80
2022/07/29 02:55:16;;;;;;;3.75;3.45;;;;;;;21.33;100.00;99580.94;5012113;28;20037;-80
2022/07/29 02:57:57;;;;;;;4.57;3.63;;;;;;;21.40;100.00;99572.88;5009817;28;20037;-79
2022/07/29 03:00:34;;;;;;;3.75;3.45;;;;;;;21.35;100.00;99578.06;5008564;28;20030;-80
2022/07/29 03:03:03;;;;;;;3.35;3.10;;;;;;;21.38;100.00;99586.53;5010499;28;20050;-81
2022/07/29 03:05:30;;;;;;;4.53;3.60;;;;;;;21.43;100.00;99593.94;5009200;28;20037;-81
2022/07/29 03:08:00;;;;;;;5.65;3.45;;;;;;;21.46;100.00;99594.34;5010809;28;20043;-80
2022/07/29 03:10:27;;;;;;;4.43;3.78;;;;;;;21.50;100.00;99605.50;5013141;28;20074;-82
2022/07/29 03:12:55;;;;;;;3.42;3.15;;;;;;;21.46;100.00;99599.69;5015091;28;20041;-79
2022/07/29 03:15:21;;;;;;;3.78;3.42;;;;;;;21.48;100.00;99602.19;5012543;28;20034;-78
2022/07/29 03:17:47;;;;;;;3.45;3.15;;;;;;;21.52;100.00;99603.41;5013786;28;20048;-78
2022/07/29 03:20:15;;;;;;;3.70;3.40;;;;;;;21.54;100.00;99601.34;5009455;28;20426;-78
2022/07/29 03:22:43;;;;;;;3.40;3.13;;;;;;;21.55;100.00;99601.13;5003374;28;20383;-79
2022/07/29 03:25:11;;;;;;;4.90;3.80;;;;;;;21.54;100.00;99602.16;5004875;28;20037;-77
2022/07/29 03:27:37;;;;;;;3.90;3.60;;;;;;;21.52;100.00;99604.22;5005489;28;20038;-81
2022/07/29 03:30:03;;;;;;;4.60;4.20;;;;;;;21.56;100.00;99609.97;5001782;28;20084;-81
2022/07/29 03:32:29;;;;;;;4.38;4.07;;;;;;;21.59;100.00;99610.41;5007680;28;20041;-80
2022/07/29 03:34:54;;;;;;;4.00;3.70;;;;;;;21.56;100.00;99608.13;5002667;28;20096;-80
2022/07/29 03:37:20;;;;;;;5.03;4.13;;;;;;;21.47;100.00;99604.03;5005671;28;20068;-79
2022/07/29 03:39:49;;;;;;;4.78;4.35;;;;;;;21.45;100.00;99608.78;5002116;28;20034;-79
2022/07/29 03:42:18;;;;;;;4.53;4.22;;;;;;;21.29;100.00;99597.69;5004052;28;20025;-80
2022/07/29 03:44:48;;;;;;;4.15;3.85;;;;;;;21.20;100.00;99597.94;5001800;28;20705;-78
2022/07/29 03:47:16;;;;;;;4.43;4.03;;;;;;;21.23;100.00;99596.69;5003797;28;20485;-79
2022/07/29 03:49:46;;;;;;;4.10;3.80;;;;;;;21.25;100.00;99594.63;4990807;28;20057;-79
2022/07/29 03:52:12;;;;;;;4.53;4.10;;;;;;;21.28;100.00;99585.31;5001877;28;20378;-78
2022/07/29 03:54:38;;;;;;;4.95;4.28;;;;;;;21.29;100.00;99585.09;4995472;28;20117;-79
2022/07/29 03:57:05;;;;;;;4.88;4.47;;;;;;;21.32;100.00;99590.06;4998066;28;20121;-78
2022/07/29 03:59:33;;;;;;;7.68;4.07;;;;;;;21.34;100.00;99601.38;5001104;28;20031;-78
2022/07/29 04:02:01;;;;;;;4.80;3.80;;;;;;;21.37;100.00;99598.31;5005518;28;20045;-78
2022/07/29 04:04:27;;;;;;;3.85;3.55;;;;;;;21.40;100.00;99589.81;5000634;28;20089;-78
2022/07/29 04:06:52;;;;;;;4.47;4.07;;;;;;;21.45;100.00;99595.38;5003057;28;20066;-79
2022/07/29 04:09:18;;;;;;;4.32;3.90;;;;;;;21.46;100.00;99599.69;5002865;28;20037;-78
2022/07/29 04:11:46;;;;;;;4.10;3.80;;;;;;;21.49;100.00;99593.94;5000960;28;20056;-78
2022/07/29 04:14:11;;;;;;;4.50;4.10;;;;;;;21.49;100.00;99604.66;5003010;28;20030;-78
2022/07/29 04:16:37;;;;;;;4.82;4.43;;;;;;;21.42;100.00;99601.16;5001086;28;20371;-78
2022/07/29 04:19:03;;;;;;;5.05;4.65;;;;;;;21.38;100.00;99602.63;5002632;28;20430;-77
2022/07/29 04:21:28;;;;;;;5.30;4.38;;;;;;;21.38;100.00;99602.63;4997616;28;20132;-79
2022/07/29 04:23:54;;;;;;;5.80;4.68;;;;;;;21.39;100.00;99601.56;5004326;28;20092;-78
2022/07/29 04:26:20;;;;;;;4.80;4.40;;;;;;;21.39;100.00;99598.06;4998938;28;20034;-78
2022/07/29 04:28:46;;;;;;;4.85;4.45;;;;;;;21.38;100.00;99602.63;4994698;28;20512;-78
2022/07/29 04:31:12;;;;;;;5.05;4.13;;;;;;;21.38;100.00;99602.63;5000271;28;20128;-77
2022/07/29 04:33:38;;;;;;;12.30;5.88;;;;;;;21.38;100.00;99609.88;5001813;28;20073;-78
2022/07/29 04:36:05;;;;;;;5.70;4.30;;;;;;;21.35;100.00;99608.41;4997258;28;20026;-78
2022/07/29 04:38:30;;;;;;;7.80;4.75;;;;;;;21.35;100.00;99602.22;4998345;28;20033;-77
2022/07/29 04:40:59;;;;;;;5.50;5.00;;;;;;;21.35;100.00;99603.03;5001062;28;20031;-77
2022/07/29 04:43:24;;;;;;;5.10;4.70;;;;;;;21.37;100.00;99617.09;5000984;28;20482;-78
2022/07/29 04:45:51;;;;;;;5.43;4.70;;;;;;;21.36;100.00;99620.81;5000152;28;20117;-78
2022/07/29 04:48:18;;;;;;;5.30;4.45;;;;;;;21.37;100.00;99617.09;4999938;28;20148;-78
2022/07/29 04:50:44;;;;;;;4.88;4.40;;;;;;;21.40;100.00;99613.97;4999331;28;20117;-78
2022/07/29 04:53:09;;;;;;;4.88;4.47;;;;;;;21.42;100.00;99619.97;5002525;28;20030;-78
2022/07/29 04:55:36;;;;;;;4.85;4.35;;;;;;;21.42;100.00;99622.66;4995593;28;20518;-79
2022/07/29 04:58:03;;;;;;;5.45;4.63;;;;;;;21.46;100.00;99615.81;5003612;28;20034;-80
2022/07/29 05:00:29;;;;;;;5.35;4.72;;;;;;;21.51;100.00;99624.06;4998726;28;20518;-77
2022/07/29 05:02:54;;;;;;;5.53;4.97;;;;;;;21.54;100.00;99617.44;4998833;28;20117;-78
2022/07/29 05:05:20;;;;;;;5.53;4.57;;;;;;;21.56;100.00;99624.22;4998579;28;20049;-79
2022/07/29 05:07:45;;;;;;;5.05;4.65;;;;;;;21.57;100.00;99617.00;4999367;28;20146;-79
2022/07/29 05:10:11;;;;;;;5.82;4.80;;;;;;;21.57;100.00;99612.47;5001697;28;20036;-79
2022/07/29 05:12:37;;;;;;;11.00;5.63;;;;;;;21.63;100.00;99616.97;4999173;28;20030;-79
2022/07/29 05:15:03;;;;;;;4.75;4.30;;;;;;;21.69;100.00;99619.84;5004358;28;20073;-78
2022/07/29 05:17:28;;;;;;;5.05;4.60;;;;;;;21.77;100.00;99616.94;4999118;28;20044;-78
2022/07/29 05:19:54;;;;;;;6.30;4.90;;;;;;;21.81;100.00;99616.28;4998830;28;20125;-79
2022/07/29 05:22:20;;;;;;;6.82;4.93;;;;;;;21.85;100.00;99619.41;4994994;28;20088;-79
2022/07/29 05:24:46;;;;;;;4.82;4.43;;;;;;;21.91;100.00;99619.34;4997295;28;20233;-80
2022/07/29 05:27:12;;;;;;;5.85;4.72;;;;;;;21.94;100.00;99626.16;5001220;28;20178;-82
2022/07/29 05:29:38;;;;;;;4.82;4.38;;;;;;;21.83;100.00;99621.47;5005296;28;20049;-73
2022/07/29 05:32:05;;;;;;;5.60;4.90;;;;;;;21.80;100.00;99622.69;5005370;28;20030;-73
2022/07/29 05:34:31;;;;;;;4.80;4.47;;;;;;;21.86;100.00;99611.09;5005138;28;20030;-74
2022/07/29 05:36:57;;;;;;;4.30;4.00;;;;;;;21.97;100.00;99610.44;5001322;28;20454;-73
2022/07/29 05:39:23;;;;;;;6.60;4.68;;;;;;;22.05;100.00;99610.22;5005815;28;20474;-73
2022/07/29 05:41:49;;;;;;;5.05;4.53;;;;;;;22.10;100.00;99609.56;5005080;28;20037;-73
2022/07/29 05:44:15;;;;;;;8.05;4.30;;;;;;;22.20;100.00;99623.38;5005267;28;20034;-73
2022/07/29 05:46:40;;;;;;;4.55;4.15;;;;;;;22.30;100.00;99623.72;5004479;28;20026;-74
2022/07/29 05:49:07;;;;;;;4.88;4.53;;;;;;;22.41;100.00;99628.38;5005095;28;20042;-73
2022/07/29 05:51:35;;;;;;;4.60;4.20;;;;;;;22.52;100.00;99623.34;5002756;28;20030;-73
2022/07/29 05:54:01;;;;;;;4.55;4.20;;;;;;;22.60;100.00;99628.47;5002365;28;20124;-72
2022/07/29 05:56:27;;;;;;;4.50;4.20;;;;;;;22.71;100.00;99635.81;5002461;28;20106;-73
2022/07/29 05:58:53;;;;;;;4.35;3.95;;;;;;;22.81;100.00;99644.25;5005712;28;20065;-74
2022/07/29 06:01:20;;;;;;;4.53;4.13;;;;;;;22.91;100.00;99646.47;5004155;28;20026;-74
2022/07/29 06:03:45;;;;;;;7.35;4.68;;;;;;;22.99;100.00;99648.84;5004430;28;20116;-75
2022/07/29 06:06:11;;;;;;;5.40;4.93;;;;;;;23.08;100.00;99636.78;5004609;28;20125;-75
2022/07/29 06:08:37;;;;;;;5.22;4.60;;;;;;;23.16;100.00;99631.91;5004509;28;20041;-72
2022/07/29 06:11:04;;;;;;;4.75;4.35;;;;;;;23.24;100.00;99626.25;5004344;28;20113;-74
2022/07/29 06:13:30;;;;;;;5.97;4.47;;;;;;;23.34;100.00;99630.28;5003841;28;20513;-76
2022/07/29 06:15:56;;;;;;;7.18;4.65;;;;;;;23.44;100.00;99636.00;5002030;28;20034;-75
2022/07/29 06:18:23;;;;;;;5.45;3.95;;;;;;;23.53;100.00;99640.88;5001288;28;20169;-74
2022/07/29 06:20:53;;;;;;;5.82;5.05;;;;;;;23.66;100.00;99648.00;5006698;28;20483;-73
2022/07/29 06:23:20;;;;;;;6.53;4.90;;;;;;;23.76;100.00;99655.53;4995577;28;20042;-74
2022/07/29 06:25:46;;;;;;;4.97;4.57;;;;;;;23.80;100.00;99657.56;4989720;28;20403;-74
2022/07/29 06:28:12;;;;;;;5.38;3.88;;;;;;;23.86;100.00;99656.66;4992105;28;20109;-72
2022/07/29 06:30:38;;;;;;;4.68;4.28;;;;;;;23.95;100.00;99655.31;4992849;28;20183;-73
2022/07/29 06:33:05;;;;;;;4.47;3.75;;;;;;;24.08;100.00;99655.13;4989861;28;20026;-73
2022/07/29 06:35:34;;;;;;;4.13;3.45;;;;;;;24.13;100.00;99656.31;4991340;28;20478;-73
2022/07/29 06:38:00;;;;;;;3.65;2.80;;;;;;;24.17;100.00;99661.03;4993122;28;20136;-73
2022/07/29 06:43:10;;;;;;;3.00;2.80;;;;;;;24.29;100.00;99664.63;4988837;28;20046;-73
2022/07/29 06:45:36;;;;;;;3.05;2.85;;;;;;;24.32;100.00;99666.06;4998168;28;20045;-73
2022/07/29 06:48:02;;;;;;;2.50;2.30;;;;;;;24.33;100.00;99662.28;4989250;28;20068;-73
2022/07/29 06:50:27;;;;;;;4.20;2.40;;;;;;;24.46;100.00;99662.09;5000644;28;20026;-75
2022/07/29 06:52:53;;;;;;;3.85;2.92;;;;;;;24.51;100.00;99656.00;4987942;28;20030;-73
2022/07/29 06:55:19;;;;;;;2.75;2.55;;;;;;;24.64;100.00;99658.50;4993825;28;20034;-73
2022/07/29 06:57:46;;;;;;;3.50;2.50;;;;;;;24.64;99.42;99651.22;5003360;28;20037;-73
2022/07/29 07:00:13;;;;;;;3.03;2.83;;;;;;;24.72;98.22;99650.91;4994876;28;20471;-73
2022/07/29 07:02:38;;;;;;;3.10;2.90;;;;;;;24.84;98.04;99654.44;4993893;28;20456;-73
2022/07/29 07:05:05;;;;;;;2.88;2.67;;;;;;;25.00;96.39;99652.13;4987438;28;20083;-72
2022/07/29 07:07:31;;;;;;;2.70;2.50;;;;;;;25.16;95.25;99654.13;5003875;28;20034;-72
2022/07/29 07:09:57;;;;;;;2.47;2.28;;;;;;;25.21;94.38;99649.66;4999195;28;20595;-73
2022/07/29 07:12:22;;;;;;;3.08;2.88;;;;;;;25.16;94.50;99648.72;5003658;28;20046;-73
2022/07/29 07:14:48;;;;;;;3.33;3.08;;;;;;;25.12;95.47;99640.28;5000224;28;20026;-74
2022/07/29 07:17:14;;;;;;;3.60;3.30;;;;;;;25.05;95.80;99652.25;4992521;28;20030;-73
2022/07/29 07:19:39;;;;;;;3.05;2.85;;;;;;;24.99;96.25;99645.91;4985733;28;20046;-72
2022/07/29 07:22:05;;;;;;;3.28;3.00;;;;;;;24.94;96.67;99647.66;4997503;28;20030;-71
2022/07/29 07:24:31;;;;;;;3.38;2.70;;;;;;;24.88;96.83;99644.84;5005072;28;20096;-73
2022/07/29 07:26:56;;;;;;;3.13;2.92;;;;;;;24.82;97.51;99656.53;4998767;28;20045;-72
2022/07/29 07:29:22;;;;;;;6.15;4.15;;;;;;;24.83;97.35;99658.19;4645267;28;10000190;-72
2022/07/29 07:31:48;;;;;;;3.42;2.92;;;;;;;24.84;96.48;99659.03;4992274;28;20058;-72
2022/07/29 07:34:13;;;;;;;3.53;3.03;;;;;;;24.96;96.73;99656.38;4984787;28;20033;-71
2022/07/29 07:36:39;;;;;;;2.85;2.65;;;;;;;25.11;96.56;99648.63;4996545;28;20033;-72
2022/07/29 07:39:05;;;;;;;2.92;2.72;;;;;;;25.21;95.58;99648.88;4990851;28;20037;-72
2022/07/29 07:41:31;;;;;;;4.22;2.50;;;;;;;25.34;94.71;99643.19;4986429;28;20075;-71
2022/07/29 07:43:56;;;;;;;4.80;3.05;;;;;;;25.41;92.47;99652.00;4981180;28;20070;-71
2022/07/29 07:46:22;;;;;;;3.10;2.75;;;;;;;25.50;92.34;99653.31;4985032;28;20066;-70
2022/07/29 07:48:47;;;;;;;2.75;2.55;;;;;;;25.58;91.66;99657.53;4984761;28;20040;-71
2022/07/29 07:51:13;;;;;;;3.72;2.63;;;;;;;25.65;90.85;99653.66;4990870;28;20144;-72
2022/07/29 07:53:39;;;;;;;3.40;3.17;;;;;;;25.66;89.58;99657.19;4642625;28;9999628;-73
2022/07/29 07:56:06;;;;;;;3.85;3.55;;;;;;;25.72;89.25;99658.09;5001006;28;20034;-72
2022/07/29 07:58:32;;;;;;;5.20;3.40;;;;;;;25.80;89.02;99660.44;5001285;28;20037;-72
2022/07/29 08:00:57;;;;;;;3.67;3.00;;;;;;;25.91;89.06;99665.81;4997768;28;20031;-72
2022/07/29 08:03:23;;;;;;;4.03;3.72;;;;;;;25.90;88.51;99658.78;4988627;28;20045;-72
2022/07/29 08:05:51;;;;;;;4.38;3.83;;;;;;;25.84;88.73;99661.59;4988671;28;20039;-74
2022/07/29 08:08:17;;;;;;;4.57;4.18;;;;;;;25.92;89.51;99650.44;4981884;28;20470;-74
2022/07/29 08:10:51;;;;;;;4.28;3.80;;;;;;;25.98;89.25;99641.31;4984456;28;20033;-73
2022/07/29 08:13:18;;;;;;;4.38;3.30;;;;;;;26.06;88.26;99635.53;4982948;28;20066;-73
2022/07/29 08:15:45;;;;;;;3.38;3.13;;;;;;;26.19;87.88;99640.66;4986890;28;20507;-74
2022/07/29 08:18:13;;;;;;;4.90;3.00;;;;;;;26.28;88.07;99638.41;4996686;28;20030;-73
2022/07/29 08:20:39;;;;;;;3.88;2.90;;;;;;;26.41;87.27;99638.94;5003913;28;20048;-73
2022/07/29 08:23:08;;;;;;;4.55;3.13;;;;;;;26.49;86.81;99630.44;4995841;28;20022;-72
2022/07/29 08:25:37;;;;;;;5.35;3.53;;;;;;;26.44;87.50;99634.94;4992460;28;20405;-73
2022/07/29 08:28:03;;;;;;;3.20;3.00;;;;;;;26.36;87.75;99628.03;4999879;28;20044;-73
2022/07/29 08:30:29;;;;;;;3.60;3.30;;;;;;;26.31;87.48;99625.22;4991277;28;20026;-73
2022/07/29 08:32:55;;;;;;;3.88;3.22;;;;;;;26.32;88.79;99628.75;4998897;28;20037;-74
2022/07/29 08:35:23;;;;;;;3.35;3.15;;;;;;;26.29;89.01;99613.81;4986759;28;20136;-71
2022/07/29 08:37:48;;;;;;;3.50;3.17;;;;;;;26.25;88.68;99623.50;4993408;28;20053;-73
2022/07/29 08:40:14;;;;;;;3.58;3.28;;;;;;;26.17;88.67;99631.97;5001714;28;20120;-72
2022/07/29 08:42:40;;;;;;;3.75;3.38;;;;;;;26.16;89.44;99635.72;4998626;28;20030;-73
2022/07/29 08:45:07;;;;;;;3.67;3.40;;;;;;;26.06;88.96;99635.53;4995903;28;20042;-73
2022/07/29 08:47:36;;;;;;;4.18;3.05;;;;;;;26.04;88.45;99634.94;4998808;28;20030;-73
2022/07/29 08:50:02;;;;;;;3.30;3.00;;;;;;;26.07;88.72;99631.78;5001287;28;20030;-74
2022/07/29 08:52:32;;;;;;;3.83;2.92;;;;;;;26.22;89.18;99628.53;4998206;28;20180;-73
2022/07/29 08:54:59;;;;;;;3.10;2.90;;;;;;;26.20;86.81;99630.66;4993693;28;20046;-72
2022/07/29 08:57:26;;;;;;;3.75;3.15;;;;;;;26.27;86.13;99626.75;4983560;28;20499;-73
2022/07/29 08:59:54;;;;;;;2.83;2.63;;;;;;;26.36;86.61;99629.91;4992228;28;20538;-72
2022/07/29 09:02:22;;;;;;;2.92;2.65;;;;;;;26.47;87.03;99621.72;4991168;28;20105;-71
2022/07/29 09:04:48;;;;;;;3.00;2.80;;;;;;;26.71;86.84;99621.56;4998344;28;20046;-72
2022/07/29 09:07:17;;;;;;;2.80;2.60;;;;;;;26.88;85.90;99627.84;5000209;28;20113;-70
2022/07/29 09:09:43;;;;;;;3.03;2.83;;;;;;;26.98;84.39;99627.97;5000779;28;20510;-72
2022/07/29 09:12:13;;;;;;;5.07;2.78;;;;;;;26.97;83.64;99626.38;5000454;28;20030;-71
2022/07/29 09:14:40;;;;;;;3.78;3.10;;;;;;;26.96;83.64;99626.59;4995943;28;20038;-72
2022/07/29 09:17:07;;;;;;;3.17;2.88;;;;;;;27.02;83.95;99623.72;4997458;28;20052;-72
2022/07/29 09:19:36;;;;;;;2.75;2.55;;;;;;;27.05;84.18;99623.22;4996235;28;20553;-73
2022/07/29 09:22:04;;;;;;;3.03;2.83;;;;;;;27.16;83.79;99619.59;4997346;28;20041;-71
2022/07/29 09:24:50;;;;;;;2.85;2.65;;;;;;;27.24;82.96;99630.00;4999235;28;20073;-71
2022/07/29 09:27:26;;;;;;;4.20;2.58;;;;;;;27.35;83.04;99622.84;5001211;28;20041;-72
2022/07/29 09:30:13;;;;;;;10.43;3.47;;;;;;;27.32;82.28;99627.94;4998166;28;20713;-72
2022/07/29 09:32:56;;;;;;;5.93;3.10;;;;;;;27.33;82.38;99625.00;4998184;28;20077;-72
2022/07/29 09:35:24;;;;;;;2.83;2.63;;;;;;;27.38;83.09;99621.53;4994214;28;20068;-74
2022/07/29 09:37:50;;;;;;;3.03;2.83;;;;;;;27.33;82.82;99616.88;5000569;28;20077;-75
2022/07/29 09:40:24;;;;;;;3.80;3.35;;;;;;;27.45;83.25;99614.03;4996174;28;20148;-74
2022/07/29 09:42:51;;;;;;;2.97;2.78;;;;;;;27.49;82.84;99612.47;4995412;28;20383;-74
2022/07/29 09:45:31;;;;;;;3.30;3.10;;;;;;;27.38;81.93;99610.69;5001665;28;20041;-74
2022/07/29 09:48:03;;;;;;;3.83;2.72;;;;;;;27.47;82.26;99609.19;4998535;28;20042;-74
2022/07/29 09:50:42;;;;;;;4.13;3.15;;;;;;;27.50;81.91;99614.09;5000704;28;20391;-74
2022/07/29 09:53:09;;;;;;;4.75;3.20;;;;;;;27.55;81.37;99611.50;4995832;28;20527;-74
2022/07/29 09:55:49;;;;;;;5.95;3.67;;;;;;;27.58;80.64;99610.97;5002862;28;20499;-73
2022/07/29 09:58:21;;;;;;;3.80;3.40;;;;;;;27.58;80.18;99610.97;4997863;28;20826;-74
2022/07/29 10:00:47;;;;;;;3.53;3.15;;;;;;;27.58;79.60;99610.97;5003008;28;20030;-75
2022/07/29 10:03:15;;;;;;;4.70;2.92;;;;;;;27.72;79.45;99601.41;5001413;28;20038;-74
2022/07/29 10:05:41;;;;;;;3.55;3.17;;;;;;;27.83;79.49;99597.72;5001219;28;20041;-75
2022/07/29 10:08:09;;;;;;;3.22;2.90;;;;;;;27.96;79.36;99608.19;4997421;28;20526;-74
2022/07/29 10:10:37;;;;;;;3.33;3.00;;;;;;;28.01;78.90;99594.69;4998337;28;20034;-72
2022/07/29 10:13:06;;;;;;;3.83;3.40;;;;;;;28.05;78.29;99600.41;4999047;28;20556;-74
2022/07/29 10:15:37;;;;;;;3.42;3.20;;;;;;;28.14;78.26;99603.50;5003657;28;20034;-75
2022/07/29 10:18:03;;;;;;;4.57;3.55;;;;;;;28.27;77.98;99603.94;5000306;28;20041;-74
2022/07/29 10:20:28;;;;;;;3.55;3.20;;;;;;;28.30;77.55;99594.44;5003920;28;20046;-72
2022/07/29 10:22:55;;;;;;;3.35;2.97;;;;;;;28.40;76.95;99592.63;5001258;28;20088;-74
2022/07/29 10:25:22;;;;;;;3.22;3.03;;;;;;;28.57;76.67;99584.34;5003543;28;20511;-73
2022/07/29 10:27:50;;;;;;;4.05;3.65;;;;;;;28.66;76.91;99574.66;5003653;28;20034;-73
2022/07/29 10:30:17;;;;;;;3.97;3.67;;;;;;;28.70;76.55;99570.34;5001260;28;20038;-74
2022/07/29 10:33:09;;;;;;;5.07;3.40;;;;;;;28.60;75.40;99562.13;5005035;28;20351;-74
2022/07/29 10:35:59;;;;;;;3.80;3.42;;;;;;;28.49;77.24;99555.81;5002559;28;20437;-74
2022/07/29 10:39:02;;;;;;;4.10;3.80;;;;;;;28.47;76.77;99549.00;5001200;28;20501;-74
2022/07/29 10:41:34;;;;;;;3.72;3.28;;;;;;;28.47;77.18;99543.56;5003004;28;20038;-74
2022/07/29 10:44:17;;;;;;;3.72;3.42;;;;;;;28.58;76.47;99552.59;5001242;28;20626;-74
2022/07/29 10:46:43;;;;;;;4.75;2.92;;;;;;;28.77;76.56;99557.41;5003097;28;20026;-73
2022/07/29 10:49:15;;;;;;;3.88;3.58;;;;;;;28.96;76.09;99548.81;4999713;28;20425;-73
2022/07/29 10:51:59;;;;;;;4.15;3.42;;;;;;;29.02;75.07;99545.06;5002383;28;20048;-73
2022/07/29 10:54:44;;;;;;;3.70;3.40;;;;;;;29.25;73.63;99545.44;5002639;28;20053;-74
2022/07/29 10:57:26;;;;;;;4.40;3.95;;;;;;;29.31;72.91;99540.84;4995097;28;20113;-73
2022/07/29 11:00:01;;;;;;;3.80;3.50;;;;;;;29.02;73.22;99534.19;5000129;28;20034;-73
2022/07/29 11:02:36;;;;;;;3.97;3.63;;;;;;;29.04;73.35;99526.59;5000545;28;20441;-73
2022/07/29 11:05:03;;;;;;;3.50;3.20;;;;;;;29.23;72.86;99530.47;4999723;28;20045;-74
2022/07/29 11:07:30;;;;;;;3.65;3.30;;;;;;;29.29;72.98;99524.81;5004316;28;20148;-74
2022/07/29 11:10:14;;;;;;;4.40;3.22;;;;;;;29.40;72.34;99522.97;5002502;28;20034;-72
2022/07/29 11:12:42;;;;;;;3.90;3.60;;;;;;;29.39;72.87;99518.66;4996881;28;20034;-74
2022/07/29 11:15:18;;;;;;;4.43;3.38;;;;;;;29.37;72.83;99520.81;4995435;28;20546;-74
2022/07/29 11:17:53;;;;;;;4.15;3.75;;;;;;;29.34;72.84;99520.50;4994880;28;20113;-73
2022/07/29 11:20:37;;;;;;;3.78;3.47;;;;;;;29.39;71.93;99526.81;5003196;28;20038;-73
2022/07/29 11:23:23;;;;;;;4.13;3.25;;;;;;;29.50;71.36;99536.63;5000097;28;20398;-74
2022/07/29 11:26:21;;;;;;;4.20;3.90;;;;;;;29.59;70.55;99524.13;4995184;28;20077;-74
2022/07/29 11:28:55;;;;;;;4.35;4.00;;;;;;;29.66;70.10;99529.31;5003422;28;20490;-75
2022/07/29 11:31:35;;;;;;;4.15;3.80;;;;;;;29.80;69.84;99524.19;4999299;28;20369;-74
2022/07/29 11:34:19;;;;;;;4.05;3.75;;;;;;;29.98;69.46;99529.16;5002687;28;20460;-73
2022/07/29 11:37:21;;;;;;;4.82;3.33;;;;;;;29.82;68.87;99524.72;5002941;28;20038;-72
2022/07/29 11:39:52;;;;;;;3.85;3.55;;;;;;;29.89;69.32;99522.56;4941819;29;20565;-74
2022/07/29 11:42:21;;;;;;;3.80;3.50;;;;;;;29.91;69.04;99520.44;4944580;29;20435;-73
2022/07/29 11:45:15;;;;;;;4.20;3.80;;;;;;;29.93;69.25;99526.41;4941142;29;20479;-74